sensor_id;sensor_type;location;lat;lon;timestamp;pressure;altitude;pressure_sealevel;temperature;humidity
56241;BME280;42155;53.096;23.226;2023-05-10T00:00:15;100843.56;;;3.83;64.38
56241;BME280;42155;53.096;23.226;2023-05-10T00:02:15;100839.31;;;3.81;64.47
56241;BME280;42155;53.096;23.226;2023-05-10T00:04:16;100847.97;;;3.83;64.57
56241;BME280;42155;53.096;23.226;2023-05-10T00:06:16;100850.66;;;3.81;64.72
56241;BME280;42155;53.096;23.226;2023-05-10T00:08:16;100851.63;;;3.79;64.66
56241;BME280;42155;53.096;23.226;2023-05-10T00:10:17;100827.66;;;3.65;64.88
56241;BME280;42155;53.096;23.226;2023-05-10T00:12:17;100852.44;;;3.81;64.94
56241;BME280;42155;53.096;23.226;2023-05-10T00:14:17;100864.81;;;3.77;64.89
56241;BME280;42155;53.096;23.226;2023-05-10T00:16:18;100864.03;;;3.75;64.95
56241;BME280;42155;53.096;23.226;2023-05-10T00:18:18;100850.25;;;3.69;65.22
56241;BME280;42155;53.096;23.226;2023-05-10T00:20:18;100848.66;;;3.65;64.75
56241;BME280;42155;53.096;23.226;2023-05-10T00:22:19;100868.78;;;3.66;64.99
56241;BME280;42155;53.096;23.226;2023-05-10T00:24:19;100841.13;;;3.55;65.25
56241;BME280;42155;53.096;23.226;2023-05-10T00:26:20;100857.59;;;3.61;64.84
56241;BME280;42155;53.096;23.226;2023-05-10T00:28:20;100855.06;;;3.57;65.10
56241;BME280;42155;53.096;23.226;2023-05-10T00:30:20;100766.06;;;3.04;64.99
56241;BME280;42155;53.096;23.226;2023-05-10T00:32:21;100854.38;;;3.52;65.33
56241;BME280;42155;53.096;23.226;2023-05-10T00:34:21;100847.47;;;3.50;65.32
56241;BME280;42155;53.096;23.226;2023-05-10T00:36:21;100858.03;;;3.48;64.93
56241;BME280;42155;53.096;23.226;2023-05-10T00:38:22;100845.00;;;3.45;65.22
56241;BME280;42155;53.096;23.226;2023-05-10T00:40:22;100829.75;;;3.33;65.42
56241;BME280;42155;53.096;23.226;2023-05-10T00:42:22;100840.06;;;3.38;65.40
56241;BME280;42155;53.096;23.226;2023-05-10T00:44:23;100838.63;;;3.29;65.21
56241;BME280;42155;53.096;23.226;2023-05-10T00:46:23;100846.38;;;3.32;65.58
56241;BME280;42155;53.096;23.226;2023-05-10T00:48:24;100841.25;;;3.29;65.16
56241;BME280;42155;53.096;23.226;2023-05-10T00:50:25;100841.25;;;3.29;64.79
56241;BME280;42155;53.096;23.226;2023-05-10T00:52:25;100841.25;;;3.29;65.38
56241;BME280;42155;53.096;23.226;2023-05-10T00:54:26;100840.44;;;3.27;65.32
56241;BME280;42155;53.096;23.226;2023-05-10T00:56:26;100841.34;;;3.26;65.60
56241;BME280;42155;53.096;23.226;2023-05-10T00:58:27;100805.63;;;2.98;65.44
56241;BME280;42155;53.096;23.226;2023-05-10T01:00:28;100840.75;;;3.19;65.56
56241;BME280;42155;53.096;23.226;2023-05-10T01:02:28;100847.69;;;3.20;65.56
56241;BME280;42155;53.096;23.226;2023-05-10T01:04:29;100846.94;;;3.17;65.58
56241;BME280;42155;53.096;23.226;2023-05-10T01:06:30;100841.69;;;3.17;65.71
56241;BME280;42155;53.096;23.226;2023-05-10T01:08:30;100841.47;;;3.23;65.39
56241;BME280;42155;53.096;23.226;2023-05-10T01:10:31;100852.19;;;3.17;65.19
56241;BME280;42155;53.096;23.226;2023-05-10T01:12:32;100847.78;;;3.17;65.85
56241;BME280;42155;53.096;23.226;2023-05-10T01:14:34;100847.88;;;3.14;65.67
56241;BME280;42155;53.096;23.226;2023-05-10T01:16:39;100843.56;;;3.13;65.79
56241;BME280;42155;53.096;23.226;2023-05-10T01:18:41;100847.16;;;3.11;65.55
56241;BME280;42155;53.096;23.226;2023-05-10T01:20:48;100841.16;;;3.07;65.97
56241;BME280;42155;53.096;23.226;2023-05-10T01:23:35;100844.72;;;3.04;66.00
56241;BME280;42155;53.096;23.226;2023-05-10T01:26:13;100848.38;;;3.00;65.89
56241;BME280;42155;53.096;23.226;2023-05-10T01:33:11;100846.09;;;2.91;65.99
56241;BME280;42155;53.096;23.226;2023-05-10T01:35:43;100847.13;;;2.87;66.05
56241;BME280;42155;53.096;23.226;2023-05-10T01:37:54;100835.38;;;2.72;66.02
56241;BME280;42155;53.096;23.226;2023-05-10T01:40:15;100831.34;;;2.62;65.73
56241;BME280;42155;53.096;23.226;2023-05-10T01:42:26;100852.66;;;2.78;66.17
56241;BME280;42155;53.096;23.226;2023-05-10T01:47:01;100854.59;;;2.73;66.07
56241;BME280;42155;53.096;23.226;2023-05-10T01:49:09;100852.06;;;2.70;65.62
56241;BME280;42155;53.096;23.226;2023-05-10T01:51:11;100850.34;;;2.69;66.03
56241;BME280;42155;53.096;23.226;2023-05-10T01:53:13;100852.22;;;2.65;66.33
56241;BME280;42155;53.096;23.226;2023-05-10T01:55:20;100855.78;;;2.63;66.30
56241;BME280;42155;53.096;23.226;2023-05-10T01:57:22;100831.81;;;2.48;66.62
56241;BME280;42155;53.096;23.226;2023-05-10T01:59:29;100850.66;;;2.60;66.22
56241;BME280;42155;53.096;23.226;2023-05-10T02:01:30;100850.75;;;2.57;66.25
56241;BME280;42155;53.096;23.226;2023-05-10T02:03:32;100852.53;;;2.56;66.99
56241;BME280;42155;53.096;23.226;2023-05-10T02:05:35;100766.03;;;2.04;66.60
56241;BME280;42155;53.096;23.226;2023-05-10T02:07:37;100845.72;;;2.50;66.62
56241;BME280;42155;53.096;23.226;2023-05-10T02:09:38;100843.13;;;2.49;66.85
56241;BME280;42155;53.096;23.226;2023-05-10T02:11:39;100842.25;;;2.50;67.13
56241;BME280;42155;53.096;23.226;2023-05-10T02:13:41;100838.88;;;2.46;66.96
56241;BME280;42155;53.096;23.226;2023-05-10T02:15:43;100793.44;;;2.21;66.69
56241;BME280;42155;53.096;23.226;2023-05-10T02:17:46;100843.25;;;2.46;66.96
56241;BME280;42155;53.096;23.226;2023-05-10T02:19:47;100791.78;;;2.18;66.93
56241;BME280;42155;53.096;23.226;2023-05-10T02:21:48;100840.78;;;2.41;67.13
56241;BME280;42155;53.096;23.226;2023-05-10T02:23:51;100822.59;;;2.37;67.10
56241;BME280;42155;53.096;23.226;2023-05-10T02:25:53;100839.97;;;2.39;67.36
56241;BME280;42155;53.096;23.226;2023-05-10T02:27:55;100837.47;;;2.36;67.19
56241;BME280;42155;53.096;23.226;2023-05-10T02:29:57;100849.66;;;2.37;67.08
56241;BME280;42155;53.096;23.226;2023-05-10T02:31:58;100817.97;;;2.18;67.29
56241;BME280;42155;53.096;23.226;2023-05-10T02:34:00;100835.84;;;2.32;67.44
56241;BME280;42155;53.096;23.226;2023-05-10T02:36:02;100840.88;;;2.38;67.52
56241;BME280;42155;53.096;23.226;2023-05-10T02:38:04;100836.72;;;2.33;67.06
56241;BME280;42155;53.096;23.226;2023-05-10T02:40:06;100834.13;;;2.31;66.95
56241;BME280;42155;53.096;23.226;2023-05-10T02:42:08;100847.06;;;2.36;67.23
56241;BME280;42155;53.096;23.226;2023-05-10T02:44:09;100820.44;;;2.23;67.15
56241;BME280;42155;53.096;23.226;2023-05-10T02:46:10;100844.41;;;2.37;66.97
56241;BME280;42155;53.096;23.226;2023-05-10T02:48:11;100838.25;;;2.38;67.20
56241;BME280;42155;53.096;23.226;2023-05-10T02:50:11;100827.28;;;2.27;67.09
56241;BME280;42155;53.096;23.226;2023-05-10T02:52:16;100842.72;;;2.36;67.06
56241;BME280;42155;53.096;23.226;2023-05-10T02:54:24;100846.13;;;2.38;67.09
56241;BME280;42155;53.096;23.226;2023-05-10T02:56:33;100847.03;;;2.37;67.08
56241;BME280;42155;53.096;23.226;2023-05-10T02:58:34;100850.50;;;2.38;66.71
56241;BME280;42155;53.096;23.226;2023-05-10T03:00:34;100851.31;;;2.40;66.98
56241;BME280;42155;53.096;23.226;2023-05-10T03:02:34;100850.31;;;2.44;67.05
56241;BME280;42155;53.096;23.226;2023-05-10T03:04:35;100847.53;;;2.48;66.66
56241;BME280;42155;53.096;23.226;2023-05-10T03:06:35;100803.09;;;2.19;66.72
56241;BME280;42155;53.096;23.226;2023-05-10T03:08:37;100859.63;;;2.52;66.90
56241;BME280;42155;53.096;23.226;2023-05-10T03:13:39;100846.47;;;2.54;66.54
56241;BME280;42155;53.096;23.226;2023-05-10T03:15:46;100860.16;;;2.62;66.46
56241;BME280;42155;53.096;23.226;2023-05-10T03:17:53;100864.34;;;2.68;66.49
56241;BME280;42155;53.096;23.226;2023-05-10T03:19:58;100851.22;;;2.69;66.10
56241;BME280;42155;53.096;23.226;2023-05-10T03:21:59;100821.31;;;2.48;66.21
56241;BME280;42155;53.096;23.226;2023-05-10T03:24:07;100840.56;;;2.74;66.04
56241;BME280;42155;53.096;23.226;2023-05-10T03:26:08;100851.66;;;2.82;66.11
56241;BME280;42155;53.096;23.226;2023-05-10T03:28:08;100779.72;;;2.39;66.14
56241;BME280;42155;53.096;23.226;2023-05-10T03:30:12;100850.44;;;2.92;65.73
56241;BME280;42155;53.096;23.226;2023-05-10T03:32:12;100856.25;;;3.00;65.98
56241;BME280;42155;53.096;23.226;2023-05-10T03:34:13;100854.97;;;3.12;65.88
56241;BME280;42155;53.096;23.226;2023-05-10T03:36:13;100848.44;;;3.24;65.61
56241;BME280;42155;53.096;23.226;2023-05-10T03:38:13;100850.94;;;3.50;65.35
56241;BME280;42155;53.096;23.226;2023-05-10T03:40:14;100854.16;;;4.90;63.07
56241;BME280;42155;53.096;23.226;2023-05-10T03:42:14;100842.13;;;6.91;59.38
56241;BME280;42155;53.096;23.226;2023-05-10T03:44:14;100830.56;;;8.99;54.92
56241;BME280;42155;53.096;23.226;2023-05-10T03:46:15;100817.16;;;10.94;51.25
56241;BME280;42155;53.096;23.226;2023-05-10T03:48:15;100821.66;;;12.66;48.71
56241;BME280;42155;53.096;23.226;2023-05-10T03:50:15;100814.94;;;14.19;45.91
56241;BME280;42155;53.096;23.226;2023-05-10T03:52:16;100812.53;;;15.52;43.00
56241;BME280;42155;53.096;23.226;2023-05-10T03:54:16;100803.88;;;16.68;41.56
56241;BME280;42155;53.096;23.226;2023-05-10T03:56:16;100801.91;;;17.84;39.23
56241;BME280;42155;53.096;23.226;2023-05-10T03:58:17;100798.28;;;18.92;37.69
56241;BME280;42155;53.096;23.226;2023-05-10T04:00:18;100797.81;;;19.91;36.01
56241;BME280;42155;53.096;23.226;2023-05-10T04:02:18;100773.00;;;20.78;34.54
56241;BME280;42155;53.096;23.226;2023-05-10T04:04:18;100799.13;;;21.74;33.29
56241;BME280;42155;53.096;23.226;2023-05-10T04:06:19;100787.84;;;22.56;32.35
56241;BME280;42155;53.096;23.226;2023-05-10T04:08:19;100792.88;;;23.34;31.00
56241;BME280;42155;53.096;23.226;2023-05-10T04:10:19;100783.63;;;24.09;29.72
56241;BME280;42155;53.096;23.226;2023-05-10T04:12:20;100778.53;;;24.85;29.31
56241;BME280;42155;53.096;23.226;2023-05-10T04:14:20;100788.03;;;25.59;28.36
56241;BME280;42155;53.096;23.226;2023-05-10T04:16:21;100781.38;;;26.29;27.39
56241;BME280;42155;53.096;23.226;2023-05-10T04:18:21;100774.56;;;26.86;26.36
56241;BME280;42155;53.096;23.226;2023-05-10T04:20:21;100771.53;;;27.48;25.26
56241;BME280;42155;53.096;23.226;2023-05-10T04:22:22;100766.06;;;28.06;25.20
56241;BME280;42155;53.096;23.226;2023-05-10T04:24:22;100762.56;;;28.62;24.19
56241;BME280;42155;53.096;23.226;2023-05-10T04:26:23;100779.28;;;29.22;23.65
56241;BME280;42155;53.096;23.226;2023-05-10T04:28:23;100779.50;;;29.76;22.83
56241;BME280;42155;53.096;23.226;2023-05-10T04:30:23;100774.38;;;30.16;22.46
56241;BME280;42155;53.096;23.226;2023-05-10T04:32:24;100775.19;;;30.47;21.79
56241;BME280;42155;53.096;23.226;2023-05-10T04:34:24;100757.59;;;30.66;21.80
56241;BME280;42155;53.096;23.226;2023-05-10T04:36:25;100768.44;;;30.73;21.31
56241;BME280;42155;53.096;23.226;2023-05-10T04:38:25;100768.47;;;30.96;20.79
56241;BME280;42155;53.096;23.226;2023-05-10T04:40:25;100759.22;;;30.43;21.35
56241;BME280;42155;53.096;23.226;2023-05-10T04:42:26;100774.84;;;29.39;22.25
56241;BME280;42155;53.096;23.226;2023-05-10T04:44:26;100780.50;;;28.13;23.40
56241;BME280;42155;53.096;23.226;2023-05-10T04:46:26;100782.31;;;26.76;25.43
56241;BME280;42155;53.096;23.226;2023-05-10T04:48:26;100789.88;;;25.93;25.96
56241;BME280;42155;53.096;23.226;2023-05-10T04:50:27;100791.72;;;25.45;26.30
56241;BME280;42155;53.096;23.226;2023-05-10T04:52:27;100794.91;;;25.20;26.00
56241;BME280;42155;53.096;23.226;2023-05-10T04:54:27;100788.19;;;24.67;26.79
56241;BME280;42155;53.096;23.226;2023-05-10T04:56:28;100790.97;;;24.52;26.51
56241;BME280;42155;53.096;23.226;2023-05-10T04:58:28;100784.22;;;24.41;26.66
56241;BME280;42155;53.096;23.226;2023-05-10T05:00:28;100780.22;;;24.22;27.33
56241;BME280;42155;53.096;23.226;2023-05-10T05:02:29;100769.66;;;24.12;27.14
56241;BME280;42155;53.096;23.226;2023-05-10T05:04:29;100782.38;;;24.12;27.26
56241;BME280;42155;53.096;23.226;2023-05-10T05:06:30;100772.53;;;23.89;27.03
56241;BME280;42155;53.096;23.226;2023-05-10T05:08:30;100761.09;;;23.58;27.05
56241;BME280;42155;53.096;23.226;2023-05-10T05:10:30;100781.47;;;23.54;27.34
56241;BME280;42155;53.096;23.226;2023-05-10T05:12:31;100708.97;;;22.97;26.48
56241;BME280;42155;53.096;23.226;2023-05-10T05:14:31;100784.25;;;23.16;26.89
56241;BME280;42155;53.096;23.226;2023-05-10T05:16:31;100775.13;;;22.79;27.09
56241;BME280;42155;53.096;23.226;2023-05-10T05:18:32;100779.84;;;22.77;27.54
56241;BME280;42155;53.096;23.226;2023-05-10T05:20:33;100784.56;;;22.83;27.00
56241;BME280;42155;53.096;23.226;2023-05-10T05:22:33;100781.78;;;22.92;27.16
56241;BME280;42155;53.096;23.226;2023-05-10T05:24:36;100781.78;;;22.92;26.72
56241;BME280;42155;53.096;23.226;2023-05-10T05:26:37;100778.25;;;22.68;26.99
56241;BME280;42155;53.096;23.226;2023-05-10T05:28:37;100771.44;;;22.72;27.04
56241;BME280;42155;53.096;23.226;2023-05-10T05:30:38;100775.41;;;22.84;27.01
56241;BME280;42155;53.096;23.226;2023-05-10T05:32:38;100766.31;;;23.00;26.85
56241;BME280;42155;53.096;23.226;2023-05-10T05:34:38;100765.47;;;23.15;26.67
56241;BME280;42155;53.096;23.226;2023-05-10T05:36:39;100771.38;;;23.33;26.86
56241;BME280;42155;53.096;23.226;2023-05-10T05:38:39;100777.94;;;23.68;26.25
56241;BME280;42155;53.096;23.226;2023-05-10T05:40:39;100771.25;;;23.85;25.56
56241;BME280;42155;53.096;23.226;2023-05-10T05:42:40;100744.25;;;23.77;25.72
56241;BME280;42155;53.096;23.226;2023-05-10T05:44:40;100782.34;;;24.05;25.29
56241;BME280;42155;53.096;23.226;2023-05-10T05:46:40;100777.53;;;24.07;26.09
56241;BME280;42155;53.096;23.226;2023-05-10T05:48:41;100781.69;;;24.25;25.68
56241;BME280;42155;53.096;23.226;2023-05-10T05:50:41;100785.25;;;24.25;24.90
56241;BME280;42155;53.096;23.226;2023-05-10T05:52:41;100777.00;;;24.33;24.71
56241;BME280;42155;53.096;23.226;2023-05-10T05:54:41;100784.50;;;24.53;25.16
56241;BME280;42155;53.096;23.226;2023-05-10T05:56:42;100787.72;;;24.63;24.23
56241;BME280;42155;53.096;23.226;2023-05-10T05:58:42;100785.44;;;24.60;24.11
56241;BME280;42155;53.096;23.226;2023-05-10T06:00:43;100784.63;;;24.66;24.38
56241;BME280;42155;53.096;23.226;2023-05-10T06:02:43;100790.09;;;24.73;24.36
56241;BME280;42155;53.096;23.226;2023-05-10T06:04:43;100777.19;;;24.75;24.42
56241;BME280;42155;53.096;23.226;2023-05-10T06:06:44;100743.88;;;24.59;24.36
56241;BME280;42155;53.096;23.226;2023-05-10T06:08:44;100781.09;;;24.94;24.58
56241;BME280;42155;53.096;23.226;2023-05-10T06:10:45;100757.34;;;24.74;24.27
56241;BME280;42155;53.096;23.226;2023-05-10T06:12:45;100792.81;;;24.94;24.75
56241;BME280;42155;53.096;23.226;2023-05-10T06:14:45;100783.22;;;24.98;24.84
56241;BME280;42155;53.096;23.226;2023-05-10T06:16:46;100784.31;;;25.04;24.54
56241;BME280;42155;53.096;23.226;2023-05-10T06:18:46;100784.28;;;24.97;24.69
56241;BME280;42155;53.096;23.226;2023-05-10T06:20:47;100792.47;;;25.04;25.38
56241;BME280;42155;53.096;23.226;2023-05-10T06:22:47;100789.75;;;25.04;24.99
56241;BME280;42155;53.096;23.226;2023-05-10T06:24:47;100775.28;;;24.97;24.78
56241;BME280;42155;53.096;23.226;2023-05-10T06:26:48;100780.84;;;25.10;23.76
56241;BME280;42155;53.096;23.226;2023-05-10T06:28:48;100780.97;;;25.02;23.48
56241;BME280;42155;53.096;23.226;2023-05-10T06:30:48;100782.53;;;24.89;23.41
56241;BME280;42155;53.096;23.226;2023-05-10T06:32:49;100787.84;;;24.76;23.31
56241;BME280;42155;53.096;23.226;2023-05-10T06:34:49;100765.31;;;24.33;23.53
56241;BME280;42155;53.096;23.226;2023-05-10T06:36:49;100774.66;;;24.09;24.36
56241;BME280;42155;53.096;23.226;2023-05-10T06:38:50;100782.94;;;23.86;24.74
56241;BME280;42155;53.096;23.226;2023-05-10T06:40:50;100771.75;;;23.45;24.24
56241;BME280;42155;53.096;23.226;2023-05-10T06:42:50;100771.66;;;23.23;24.52
56241;BME280;42155;53.096;23.226;2023-05-10T06:44:51;100781.28;;;23.26;25.31
56241;BME280;42155;53.096;23.226;2023-05-10T06:46:51;100725.81;;;23.07;25.26
56241;BME280;42155;53.096;23.226;2023-05-10T06:48:51;100772.03;;;23.35;24.67
56241;BME280;42155;53.096;23.226;2023-05-10T06:50:52;100785.94;;;23.17;23.95
56241;BME280;42155;53.096;23.226;2023-05-10T06:52:52;100783.66;;;23.06;23.56
56241;BME280;42155;53.096;23.226;2023-05-10T06:54:52;100787.06;;;23.08;23.75
56241;BME280;42155;53.096;23.226;2023-05-10T06:56:53;100767.91;;;23.09;23.96
56241;BME280;42155;53.096;23.226;2023-05-10T06:58:53;100785.56;;;23.20;23.81
56241;BME280;42155;53.096;23.226;2023-05-10T07:00:53;100783.59;;;23.14;24.10
56241;BME280;42155;53.096;23.226;2023-05-10T07:02:54;100740.88;;;22.86;23.62
56241;BME280;42155;53.096;23.226;2023-05-10T07:04:54;100784.81;;;23.26;23.43
56241;BME280;42155;53.096;23.226;2023-05-10T07:06:54;100778.78;;;23.39;23.33
56241;BME280;42155;53.096;23.226;2023-05-10T07:08:55;100782.31;;;23.40;22.86
56241;BME280;42155;53.096;23.226;2023-05-10T07:11:05;100776.50;;;23.43;23.39
56241;BME280;42155;53.096;23.226;2023-05-10T07:13:06;100756.97;;;23.32;23.41
56241;BME280;42155;53.096;23.226;2023-05-10T07:15:06;100745.13;;;23.19;23.14
56241;BME280;42155;53.096;23.226;2023-05-10T07:17:07;100779.03;;;23.29;23.92
56241;BME280;42155;53.096;23.226;2023-05-10T07:19:07;100781.56;;;23.31;23.59
56241;BME280;42155;53.096;23.226;2023-05-10T07:21:08;100741.09;;;23.00;24.08
56241;BME280;42155;53.096;23.226;2023-05-10T07:23:08;100755.31;;;23.02;24.12
56241;BME280;42155;53.096;23.226;2023-05-10T07:25:08;100788.72;;;23.09;24.22
56241;BME280;42155;53.096;23.226;2023-05-10T07:27:09;100787.31;;;22.98;23.59
56241;BME280;42155;53.096;23.226;2023-05-10T07:29:09;100752.13;;;22.60;23.58
56241;BME280;42155;53.096;23.226;2023-05-10T07:31:09;100779.19;;;22.60;24.26
56241;BME280;42155;53.096;23.226;2023-05-10T07:33:12;100750.66;;;22.50;23.80
56241;BME280;42155;53.096;23.226;2023-05-10T07:35:13;100777.47;;;22.59;23.94
56241;BME280;42155;53.096;23.226;2023-05-10T07:37:13;100761.94;;;22.39;24.52
56241;BME280;42155;53.096;23.226;2023-05-10T07:39:13;100776.81;;;22.11;24.23
56241;BME280;42155;53.096;23.226;2023-05-10T07:41:14;100769.09;;;22.00;24.70
56241;BME280;42155;53.096;23.226;2023-05-10T07:43:14;100773.97;;;22.05;24.55
56241;BME280;42155;53.096;23.226;2023-05-10T07:45:14;100748.06;;;21.88;24.27
56241;BME280;42155;53.096;23.226;2023-05-10T07:47:15;100741.38;;;21.67;25.15
56241;BME280;42155;53.096;23.226;2023-05-10T07:49:15;100759.25;;;21.76;25.42
56241;BME280;42155;53.096;23.226;2023-05-10T07:51:16;100775.31;;;21.70;24.86
56241;BME280;42155;53.096;23.226;2023-05-10T07:53:16;100775.84;;;21.65;24.50
56241;BME280;42155;53.096;23.226;2023-05-10T07:55:18;100739.13;;;21.48;24.83
56241;BME280;42155;53.096;23.226;2023-05-10T07:57:18;100782.59;;;21.69;24.37
56241;BME280;42155;53.096;23.226;2023-05-10T07:59:19;100721.25;;;21.47;24.14
56241;BME280;42155;53.096;23.226;2023-05-10T08:01:19;100756.38;;;21.78;24.16
56241;BME280;42155;53.096;23.226;2023-05-10T08:03:20;100771.72;;;21.46;24.02
56241;BME280;42155;53.096;23.226;2023-05-10T08:05:20;100770.81;;;20.90;24.21
56241;BME280;42155;53.096;23.226;2023-05-10T08:07:21;100747.03;;;20.45;25.01
56241;BME280;42155;53.096;23.226;2023-05-10T08:09:22;100772.63;;;20.41;24.81
56241;BME280;42155;53.096;23.226;2023-05-10T08:11:22;100753.75;;;20.16;24.77
56241;BME280;42155;53.096;23.226;2023-05-10T08:13:22;100701.88;;;19.47;25.53
56241;BME280;42155;53.096;23.226;2023-05-10T08:15:23;100772.53;;;19.83;24.88
56241;BME280;42155;53.096;23.226;2023-05-10T08:17:23;100755.84;;;19.80;24.79
56241;BME280;42155;53.096;23.226;2023-05-10T08:19:23;100739.19;;;19.76;24.99
56241;BME280;42155;53.096;23.226;2023-05-10T08:21:24;100755.53;;;19.91;25.07
56241;BME280;42155;53.096;23.226;2023-05-10T08:23:25;100774.94;;;20.03;25.25
56241;BME280;42155;53.096;23.226;2023-05-10T08:25:25;100754.03;;;19.89;26.15
56241;BME280;42155;53.096;23.226;2023-05-10T08:27:25;100756.75;;;20.05;25.60
56241;BME280;42155;53.096;23.226;2023-05-10T08:29:26;100771.56;;;20.01;25.49
56241;BME280;42155;53.096;23.226;2023-05-10T08:31:26;100766.91;;;19.69;25.73
56241;BME280;42155;53.096;23.226;2023-05-10T08:33:26;100761.75;;;19.75;25.95
56241;BME280;42155;53.096;23.226;2023-05-10T08:35:27;100740.88;;;19.86;26.79
56241;BME280;42155;53.096;23.226;2023-05-10T08:37:29;100745.66;;;20.16;26.37
56241;BME280;42155;53.096;23.226;2023-05-10T08:39:34;100752.06;;;20.31;25.75
56241;BME280;42155;53.096;23.226;2023-05-10T08:41:35;100741.13;;;20.41;25.29
56241;BME280;42155;53.096;23.226;2023-05-10T08:43:37;100753.63;;;20.50;25.88
56241;BME280;42155;53.096;23.226;2023-05-10T08:45:43;100751.78;;;20.51;25.50
56241;BME280;42155;53.096;23.226;2023-05-10T08:47:44;100725.13;;;20.31;25.05
56241;BME280;42155;53.096;23.226;2023-05-10T08:49:47;100762.56;;;20.59;25.55
56241;BME280;42155;53.096;23.226;2023-05-10T08:51:51;100754.81;;;20.64;25.43
56241;BME280;42155;53.096;23.226;2023-05-10T08:53:52;100758.19;;;20.66;25.75
56241;BME280;42155;53.096;23.226;2023-05-10T08:55:53;100747.06;;;20.53;25.49
56241;BME280;42155;53.096;23.226;2023-05-10T08:57:53;100762.75;;;20.57;25.21
56241;BME280;42155;53.096;23.226;2023-05-10T08:59:54;100767.63;;;20.54;25.26
56241;BME280;42155;53.096;23.226;2023-05-10T09:01:57;100755.78;;;20.47;25.01
56241;BME280;42155;53.096;23.226;2023-05-10T09:03:57;100745.34;;;20.27;25.13
56241;BME280;42155;53.096;23.226;2023-05-10T09:05:58;100735.22;;;20.21;25.63
56241;BME280;42155;53.096;23.226;2023-05-10T09:07:58;100728.84;;;20.30;25.61
56241;BME280;42155;53.096;23.226;2023-05-10T09:09:59;100748.94;;;20.52;24.87
56241;BME280;42155;53.096;23.226;2023-05-10T09:11:59;100740.25;;;20.24;25.12
56241;BME280;42155;53.096;23.226;2023-05-10T09:14:01;100740.75;;;20.20;24.81
56241;BME280;42155;53.096;23.226;2023-05-10T09:16:03;100745.00;;;20.22;24.79
56241;BME280;42155;53.096;23.226;2023-05-10T09:18:03;100736.22;;;20.28;24.54
56241;BME280;42155;53.096;23.226;2023-05-10T09:20:04;100738.59;;;20.40;25.16
56241;BME280;42155;53.096;23.226;2023-05-10T09:22:05;100736.94;;;20.55;25.21
56241;BME280;42155;53.096;23.226;2023-05-10T09:24:07;100741.19;;;20.57;24.87
56241;BME280;42155;53.096;23.226;2023-05-10T09:26:08;100730.03;;;20.44;24.33
56241;BME280;42155;53.096;23.226;2023-05-10T09:28:08;100744.31;;;20.12;24.21
56241;BME280;42155;53.096;23.226;2023-05-10T09:30:09;100740.56;;;19.89;25.08
56241;BME280;42155;53.096;23.226;2023-05-10T09:32:09;100743.91;;;19.82;25.26
56241;BME280;42155;53.096;23.226;2023-05-10T09:34:10;100709.47;;;19.52;25.03
56241;BME280;42155;53.096;23.226;2023-05-10T09:36:10;100733.69;;;19.52;25.57
56241;BME280;42155;53.096;23.226;2023-05-10T09:38:10;100740.03;;;19.43;25.70
56241;BME280;42155;53.096;23.226;2023-05-10T09:40:13;100724.06;;;19.49;26.04
56241;BME280;42155;53.096;23.226;2023-05-10T09:42:18;100703.91;;;19.53;25.71
56241;BME280;42155;53.096;23.226;2023-05-10T09:44:18;100717.59;;;19.26;25.45
56241;BME280;42155;53.096;23.226;2023-05-10T09:46:18;100722.31;;;18.98;25.50
56241;BME280;42155;53.096;23.226;2023-05-10T09:48:23;100719.81;;;18.96;25.33
56241;BME280;42155;53.096;23.226;2023-05-10T09:50:25;100725.38;;;19.03;25.98
56241;BME280;42155;53.096;23.226;2023-05-10T09:52:25;100721.94;;;19.19;26.43
56241;BME280;42155;53.096;23.226;2023-05-10T09:54:26;100721.19;;;19.43;26.49
56241;BME280;42155;53.096;23.226;2023-05-10T09:56:33;100700.84;;;19.48;26.54
56241;BME280;42155;53.096;23.226;2023-05-10T09:58:36;100724.34;;;19.72;25.86
56241;BME280;42155;53.096;23.226;2023-05-10T10:00:45;100722.50;;;19.73;25.67
56241;BME280;42155;53.096;23.226;2023-05-10T10:02:54;100725.22;;;19.81;25.60
56241;BME280;42155;53.096;23.226;2023-05-10T10:04:55;100713.09;;;19.85;25.16
56241;BME280;42155;53.096;23.226;2023-05-10T10:07:00;100718.03;;;19.98;25.41
56241;BME280;42155;53.096;23.226;2023-05-10T10:09:01;100675.91;;;19.89;24.88
56241;BME280;42155;53.096;23.226;2023-05-10T10:11:01;100703.22;;;20.02;25.26
56241;BME280;42155;53.096;23.226;2023-05-10T10:13:02;100712.28;;;19.84;25.43
56241;BME280;42155;53.096;23.226;2023-05-10T10:15:03;100700.16;;;19.89;25.22
56241;BME280;42155;53.096;23.226;2023-05-10T10:17:03;100687.53;;;19.89;25.49
56241;BME280;42155;53.096;23.226;2023-05-10T10:19:04;100706.91;;;20.09;24.59
56241;BME280;42155;53.096;23.226;2023-05-10T10:21:07;100685.34;;;19.84;24.55
56241;BME280;42155;53.096;23.226;2023-05-10T10:23:08;100692.06;;;19.89;24.70
56241;BME280;42155;53.096;23.226;2023-05-10T10:25:10;100677.28;;;19.93;25.52
56241;BME280;42155;53.096;23.226;2023-05-10T10:27:24;100685.84;;;20.04;25.14
56241;BME280;42155;53.096;23.226;2023-05-10T10:29:35;100690.22;;;19.89;24.97
56241;BME280;42155;53.096;23.226;2023-05-10T10:31:41;100662.84;;;19.51;25.07
56241;BME280;42155;53.096;23.226;2023-05-10T10:33:59;100669.41;;;19.57;25.28
56241;BME280;42155;53.096;23.226;2023-05-10T10:36:01;100674.63;;;19.58;25.74
56241;BME280;42155;53.096;23.226;2023-05-10T10:38:02;100682.28;;;19.79;25.28
56241;BME280;42155;53.096;23.226;2023-05-10T10:40:23;100672.88;;;19.83;25.59